Time;durP1;ratioP1;P1;durP2;ratioP2;P2;SDS_P1;SDS_P2;PMS_P1;PMS_P2;Temp;Humidity;BMP_temperature;BMP_pressure;BME280_temperature;BME280_humidity;BME280_pressure;Samples;Min_cycle;Max_cycle;Signal;HPM_P1;HPM_P2
2023/07/05 00:00:33;;;;;;;0.50;0.20;;;;;;;19.47;100.00;99600.47;5031429;28;20976;-51
2023/07/05 00:03:00;;;;;;;0.50;0.20;;;;;;;19.37;100.00;99599.47;5031545;28;20467;-51
2023/07/05 00:05:26;;;;;;;0.50;0.20;;;;;;;19.36;100.00;99595.03;5031313;28;20839;-51
2023/07/05 00:07:57;;;;;;;0.50;0.20;;;;;;;19.54;100.00;99593.63;5031588;28;20499;-52
2023/07/05 00:10:24;;;;;;;0.50;0.20;;;;;;;19.64;100.00;99589.28;5031235;28;20818;-51
2023/07/05 00:12:50;;;;;;;1.40;1.37;;;;;;;19.56;100.00;99580.06;5031523;28;20460;-51
2023/07/05 00:15:17;;;;;;;0.50;0.30;;;;;;;19.69;100.00;99592.47;5035350;28;20522;-52
2023/07/05 00:17:43;;;;;;;0.50;0.20;;;;;;;19.86;100.00;99587.59;5044123;28;20471;-51
2023/07/05 00:20:10;;;;;;;0.50;0.20;;;;;;;19.73;100.00;99588.56;5035133;28;20902;-51
2023/07/05 00:22:37;;;;;;;0.50;0.20;;;;;;;19.88;100.00;99596.47;5035073;28;20538;-51
2023/07/05 00:25:04;;;;;;;0.47;0.20;;;;;;;19.63;100.00;99587.56;5034917;28;20553;-52
2023/07/05 00:27:31;;;;;;;0.50;0.20;;;;;;;19.78;100.00;99577.44;5034664;28;20459;-52
2023/07/05 00:29:57;;;;;;;0.50;0.20;;;;;;;19.81;100.00;99580.75;5035206;28;20464;-51
2023/07/05 00:32:24;;;;;;;0.50;0.20;;;;;;;19.62;100.00;99572.38;5034770;28;20483;-51
2023/07/05 00:34:50;;;;;;;0.50;0.20;;;;;;;19.39;100.00;99570.53;5034896;28;20474;-50
2023/07/05 00:37:17;;;;;;;0.40;0.20;;;;;;;19.56;100.00;99567.44;5026492;28;20469;-51
2023/07/05 00:39:43;;;;;;;0.40;0.20;;;;;;;19.47;100.00;99555.50;5034573;28;20594;-51
2023/07/05 00:42:10;;;;;;;0.50;0.20;;;;;;;19.31;100.00;99560.34;5034908;28;20491;-51
2023/07/05 00:44:36;;;;;;;0.50;0.20;;;;;;;19.17;100.00;99556.00;5034747;28;20924;-51
2023/07/05 00:47:24;;;;;;;0.50;0.20;;;;;;;18.99;100.00;99551.16;5034735;28;20545;-51
2023/07/05 00:49:50;;;;;;;0.50;0.20;;;;;;;19.05;100.00;99551.56;5034591;28;20502;-51
2023/07/05 00:52:18;;;;;;;0.50;0.20;;;;;;;19.20;100.00;99545.00;5034454;28;20459;-51
2023/07/05 00:54:52;;;;;;;0.40;0.20;;;;;;;19.13;100.00;99541.03;5034478;28;20464;-51
2023/07/05 00:57:23;;;;;;;0.50;0.20;;;;;;;19.34;100.00;99535.00;5034756;28;20509;-51
2023/07/05 01:00:16;;;;;;;0.47;0.20;;;;;;;19.21;100.00;99527.00;5030117;28;20549;-51
2023/07/05 01:02:47;;;;;;;0.40;0.20;;;;;;;19.19;100.00;99527.13;5034142;28;20471;-51
2023/07/05 01:05:13;;;;;;;0.50;0.20;;;;;;;19.17;100.00;99526.34;5034122;28;20977;-51
2023/07/05 01:07:40;;;;;;;0.50;0.20;;;;;;;19.31;100.00;99525.31;5034363;28;20464;-51
2023/07/05 01:10:16;;;;;;;0.50;0.20;;;;;;;19.98;100.00;99536.25;5028598;28;20525;-51
2023/07/05 01:13:02;;;;;;;0.50;0.20;;;;;;;19.66;100.00;99536.09;5034078;28;21397;-51
2023/07/05 01:15:37;;;;;;;0.50;0.20;;;;;;;19.46;100.00;99537.63;5033895;28;20487;-51
2023/07/05 01:18:22;;;;;;;0.40;0.20;;;;;;;19.27;100.00;99536.44;5034260;28;20485;-52
2023/07/05 01:21:08;;;;;;;0.50;0.20;;;;;;;19.31;100.00;99533.38;5034032;28;20471;-52
2023/07/05 01:23:53;;;;;;;0.50;0.20;;;;;;;19.20;100.00;99526.16;5033806;28;20490;-52
2023/07/05 01:26:39;;;;;;;0.40;0.20;;;;;;;19.17;100.00;99512.03;5041633;28;21042;-52
2023/07/05 01:29:30;;;;;;;0.50;0.20;;;;;;;19.17;100.00;99512.88;5033874;28;20466;-51
2023/07/05 01:32:10;;;;;;;0.40;0.20;;;;;;;19.06;100.00;99523.66;5026686;28;20839;-51
2023/07/05 01:34:50;;;;;;;0.40;0.20;;;;;;;19.18;100.00;99511.91;5032370;28;20470;-51
2023/07/05 01:37:28;;;;;;;0.43;0.20;;;;;;;19.06;100.00;99512.88;5033637;28;20459;-51
2023/07/05 01:39:54;;;;;;;0.40;0.20;;;;;;;18.97;100.00;99512.69;5026244;28;20526;-51
2023/07/05 01:42:31;;;;;;;0.50;0.33;;;;;;;18.92;100.00;99515.75;5033479;28;20467;-51
2023/07/05 01:44:59;;;;;;;0.50;0.20;;;;;;;18.89;100.00;99519.50;5033634;28;20542;-52
2023/07/05 01:48:03;;;;;;;0.40;0.20;;;;;;;18.92;100.00;99531.91;5033540;28;20473;-51
2023/07/05 01:50:36;;;;;;;0.50;0.20;;;;;;;18.92;100.00;99535.47;5033152;28;20472;-52
2023/07/05 01:53:12;;;;;;;0.50;0.20;;;;;;;18.85;100.00;99528.81;5033680;28;20487;-51
2023/07/05 01:56:15;;;;;;;0.50;0.20;;;;;;;18.78;100.00;99524.88;5032133;28;20489;-51
2023/07/05 01:58:45;;;;;;;0.40;0.20;;;;;;;18.57;100.00;99519.19;5012001;28;20522;-51
2023/07/05 02:01:15;;;;;;;1.50;1.40;;;;;;;18.66;100.00;99520.41;5033362;28;20499;-51
2023/07/05 02:03:43;;;;;;;0.40;0.20;;;;;;;18.37;100.00;99519.81;5033316;28;20464;-51
2023/07/05 02:06:11;;;;;;;0.50;0.20;;;;;;;18.46;100.00;99526.34;5033037;28;20487;-51
2023/07/05 02:08:39;;;;;;;0.40;0.20;;;;;;;18.44;100.00;99512.13;5032925;28;20464;-51
2023/07/05 02:11:06;;;;;;;0.50;0.20;;;;;;;18.44;100.00;99509.44;5033059;28;20558;-52
2023/07/05 02:13:32;;;;;;;0.40;0.20;;;;;;;18.74;100.00;99503.66;5032882;28;20500;-51
2023/07/05 02:15:59;;;;;;;0.50;0.20;;;;;;;18.52;100.00;99485.53;5033061;28;20487;-51
2023/07/05 02:18:29;;;;;;;0.40;0.20;;;;;;;18.44;100.00;99502.22;5032654;28;20468;-51
2023/07/05 02:20:56;;;;;;;0.50;0.20;;;;;;;18.52;100.00;99505.22;5032661;28;20459;-51
2023/07/05 02:23:23;;;;;;;0.40;0.20;;;;;;;18.92;100.00;99505.84;5032917;28;20529;-51
2023/07/05 02:25:50;;;;;;;0.47;0.20;;;;;;;18.90;100.00;99501.50;5028460;28;20618;-52
2023/07/05 02:28:18;;;;;;;0.40;0.20;;;;;;;18.98;100.00;99503.63;5032963;28;20498;-51
2023/07/05 02:30:44;;;;;;;0.40;0.20;;;;;;;18.93;100.00;99501.31;5032737;28;20621;-51
2023/07/05 02:33:11;;;;;;;0.40;0.20;;;;;;;19.25;100.00;99490.75;5027724;28;20467;-51
2023/07/05 02:35:39;;;;;;;0.50;0.20;;;;;;;19.29;100.00;99497.63;5032403;28;20483;-51
2023/07/05 02:38:06;;;;;;;0.40;0.30;;;;;;;19.19;100.00;99491.25;5032552;28;20900;-51
2023/07/05 02:40:33;;;;;;;0.40;0.20;;;;;;;19.01;100.00;99485.41;5032268;28;20551;-51
2023/07/05 02:43:00;;;;;;;0.40;0.20;;;;;;;19.03;100.00;99477.19;5032483;28;20889;-51
2023/07/05 02:45:27;;;;;;;0.40;0.20;;;;;;;18.94;100.00;99463.47;5032234;28;20900;-52
2023/07/05 02:47:54;;;;;;;0.40;0.20;;;;;;;18.92;100.00;99446.59;5032614;28;20525;-51
2023/07/05 02:50:21;;;;;;;0.40;0.20;;;;;;;19.08;100.00;99443.56;5032276;28;20492;-51
2023/07/05 02:52:48;;;;;;;0.40;0.20;;;;;;;19.04;100.00;99436.66;5032251;28;20895;-51
2023/07/05 02:55:14;;;;;;;0.40;0.20;;;;;;;19.11;100.00;99426.28;5032170;28;20514;-51
2023/07/05 02:57:41;;;;;;;0.40;0.20;;;;;;;19.20;100.00;99442.63;5032340;28;20471;-52
2023/07/05 03:00:08;;;;;;;0.40;0.20;;;;;;;19.32;100.00;99454.25;5032171;28;20523;-51
2023/07/05 03:02:35;;;;;;;0.40;0.20;;;;;;;19.41;100.00;99467.00;5032335;28;20467;-51
2023/07/05 03:05:06;;;;;;;0.40;0.20;;;;;;;19.41;100.00;99466.16;5032219;28;20550;-51
2023/07/05 03:07:33;;;;;;;0.40;0.20;;;;;;;19.39;100.00;99471.66;5032100;28;20546;-52
2023/07/05 03:09:59;;;;;;;0.40;0.20;;;;;;;19.39;100.00;99477.06;5032281;28;20542;-51
2023/07/05 03:12:26;;;;;;;0.40;0.20;;;;;;;19.31;100.00;99473.22;5032079;28;20467;-52
2023/07/05 03:14:52;;;;;;;0.40;0.20;;;;;;;19.49;100.00;99474.53;5031903;28;20864;-51
2023/07/05 03:17:19;;;;;;;0.40;0.20;;;;;;;19.46;100.00;99474.72;5032212;28;20526;-51
2023/07/05 03:19:45;;;;;;;0.40;0.20;;;;;;;19.51;100.00;99475.25;5031883;28;21004;-51
2023/07/05 03:22:13;;;;;;;0.40;0.30;;;;;;;19.32;100.00;99469.56;5031881;28;20470;-52
2023/07/05 03:24:39;;;;;;;0.40;0.20;;;;;;;19.54;100.00;99472.31;5032097;28;20482;-51
2023/07/05 03:27:06;;;;;;;0.40;0.20;;;;;;;19.61;100.00;99476.28;5031700;28;20538;-52
2023/07/05 03:29:32;;;;;;;0.40;0.20;;;;;;;19.49;100.00;99472.69;5032166;28;20550;-52
2023/07/05 03:31:59;;;;;;;0.40;0.20;;;;;;;19.46;100.00;99467.53;5031720;28;20467;-54
2023/07/05 03:34:25;;;;;;;0.40;0.20;;;;;;;19.43;100.00;99472.28;5031706;28;20467;-52
2023/07/05 03:36:52;;;;;;;0.40;0.20;;;;;;;19.40;100.00;99459.91;5031613;28;20491;-51
2023/07/05 03:39:19;;;;;;;0.40;0.20;;;;;;;19.48;100.00;99464.72;5032209;28;20587;-51
2023/07/05 03:41:45;;;;;;;0.40;0.20;;;;;;;19.40;100.00;99464.44;5014334;28;20463;-51
2023/07/05 03:44:11;;;;;;;0.40;0.20;;;;;;;19.60;100.00;99454.81;5031809;28;20464;-52
2023/07/05 03:46:38;;;;;;;0.40;0.20;;;;;;;19.61;100.00;99467.34;5031597;28;20980;-52
2023/07/05 03:49:05;;;;;;;0.40;0.20;;;;;;;19.59;100.00;99464.72;5034116;28;20459;-52
2023/07/05 03:51:31;;;;;;;0.40;0.20;;;;;;;19.48;100.00;99470.97;5035441;28;20471;-52
2023/07/05 03:53:58;;;;;;;0.40;0.20;;;;;;;19.41;100.00;99475.09;5035980;28;20467;-51
2023/07/05 03:56:27;;;;;;;0.40;0.20;;;;;;;19.65;100.00;99482.28;5035513;28;20483;-51
2023/07/05 03:58:53;;;;;;;0.40;0.20;;;;;;;19.63;100.00;99466.22;5035604;28;20502;-51
2023/07/05 04:01:25;;;;;;;0.50;0.20;;;;;;;19.64;100.00;99467.09;5035641;28;20498;-51
2023/07/05 04:03:57;;;;;;;0.40;0.20;;;;;;;19.73;100.00;99477.97;5035548;28;20463;-52
2023/07/05 04:06:26;;;;;;;0.60;0.60;;;;;;;19.79;100.00;99487.44;5035049;28;20529;-52
2023/07/05 04:08:54;;;;;;;0.40;0.20;;;;;;;19.75;100.00;99485.97;5035344;28;20471;-52
2023/07/05 04:11:21;;;;;;;0.50;0.20;;;;;;;19.77;100.00;99484.88;5035291;28;20498;-50
2023/07/05 04:13:50;;;;;;;0.40;0.20;;;;;;;19.75;100.00;99494.06;5017567;28;20495;-51
2023/07/05 04:16:20;;;;;;;0.40;0.20;;;;;;;19.73;100.00;99496.84;5035029;28;20483;-51
2023/07/05 04:18:50;;;;;;;0.40;0.20;;;;;;;19.64;100.00;99502.13;5035104;28;20835;-51
2023/07/05 04:21:17;;;;;;;0.40;0.20;;;;;;;19.73;100.00;99504.94;5035347;28;20467;-51
2023/07/05 04:23:44;;;;;;;0.40;0.20;;;;;;;19.53;100.00;99509.19;5035101;28;20467;-52
2023/07/05 04:26:14;;;;;;;0.40;0.20;;;;;;;19.61;100.00;99503.25;5034827;28;20895;-51
2023/07/05 04:28:42;;;;;;;0.40;0.20;;;;;;;19.71;100.00;99514.16;5034878;28;20517;-51
2023/07/05 04:31:11;;;;;;;0.40;0.20;;;;;;;19.71;100.00;99515.00;5034927;28;20468;-51
2023/07/05 04:33:38;;;;;;;0.40;0.20;;;;;;;19.60;100.00;99525.81;5031258;28;20468;-51
2023/07/05 04:36:05;;;;;;;0.40;0.20;;;;;;;19.69;100.00;99522.34;5035067;28;20487;-51
2023/07/05 04:38:41;;;;;;;0.40;0.20;;;;;;;19.74;100.00;99522.03;5034662;28;20875;-51
2023/07/05 04:41:09;;;;;;;0.40;0.20;;;;;;;19.93;100.00;99529.50;5034909;28;20523;-53
2023/07/05 04:43:35;;;;;;;0.40;0.20;;;;;;;20.21;100.00;99542.50;5034513;28;20463;-52
2023/07/05 04:46:02;;;;;;;0.40;0.20;;;;;;;20.29;100.00;99544.59;5034588;28;21030;-51
2023/07/05 04:48:29;;;;;;;0.40;0.30;;;;;;;20.38;100.00;99554.63;5034598;28;20477;-51
2023/07/05 04:50:57;;;;;;;0.40;0.20;;;;;;;20.14;100.00;99560.16;5034726;28;20554;-51
2023/07/05 04:53:27;;;;;;;0.40;0.20;;;;;;;20.10;100.00;99561.38;5034466;28;20608;-51
2023/07/05 04:55:56;;;;;;;0.50;0.30;;;;;;;19.97;100.00;99569.59;5034468;28;20483;-51
2023/07/05 04:58:24;;;;;;;0.40;0.20;;;;;;;19.90;100.00;99572.91;5034557;28;20463;-53
2023/07/05 05:00:51;;;;;;;0.40;0.20;;;;;;;19.57;100.00;99582.63;5025480;28;20491;-51
2023/07/05 05:03:20;;;;;;;0.50;0.47;;;;;;;19.38;96.92;99590.41;5034600;28;20460;-50
2023/07/05 05:05:54;;;;;;;0.40;0.20;;;;;;;19.16;94.94;99570.44;5034347;28;20495;-51
2023/07/05 05:08:22;;;;;;;0.40;0.20;;;;;;;19.29;95.69;99577.59;5034077;28;20964;-51
2023/07/05 05:10:53;;;;;;;0.40;0.20;;;;;;;19.09;96.35;99582.69;5034366;28;20494;-50
2023/07/05 05:13:22;;;;;;;0.40;0.20;;;;;;;19.37;96.72;99570.66;5034515;28;20469;-51
2023/07/05 05:15:50;;;;;;;0.40;0.20;;;;;;;19.35;96.56;99587.94;5016521;28;20490;-52
2023/07/05 05:18:17;;;;;;;0.40;0.20;;;;;;;19.18;94.46;99591.88;5034159;28;20475;-50
2023/07/05 05:20:44;;;;;;;0.40;0.20;;;;;;;19.03;95.06;99593.03;5033666;28;20502;-51
2023/07/05 05:23:11;;;;;;;0.60;0.60;;;;;;;19.28;93.32;99598.31;5034107;28;20468;-51
2023/07/05 05:25:42;;;;;;;0.40;0.30;;;;;;;19.33;91.24;99606.94;5033518;28;20527;-51
2023/07/05 05:28:09;;;;;;;0.40;0.20;;;;;;;18.92;90.67;99620.78;5034210;28;20467;-51
2023/07/05 05:30:36;;;;;;;0.50;0.20;;;;;;;18.93;89.47;99619.81;5033791;28;20953;-51
2023/07/05 05:33:03;;;;;;;0.50;0.20;;;;;;;19.14;89.37;99618.22;5033795;28;20464;-51
2023/07/05 05:35:31;;;;;;;0.50;0.20;;;;;;;19.03;89.33;99626.22;5033507;28;20546;-51
2023/07/05 05:37:58;;;;;;;0.50;0.20;;;;;;;19.35;87.39;99637.31;5034060;28;20463;-51
2023/07/05 05:40:25;;;;;;;0.40;0.20;;;;;;;19.09;87.48;99625.78;5033519;28;20546;-52
2023/07/05 05:42:51;;;;;;;0.40;0.20;;;;;;;18.95;87.73;99647.50;5033782;28;20531;-51
2023/07/05 05:45:18;;;;;;;0.40;0.20;;;;;;;19.14;87.39;99649.69;5033458;28;20534;-51
2023/07/05 05:47:45;;;;;;;0.40;0.20;;;;;;;19.01;86.88;99655.13;5033600;28;20471;-52
2023/07/05 05:50:11;;;;;;;0.47;0.20;;;;;;;19.17;86.79;99657.53;5033464;28;20912;-51
2023/07/05 05:52:38;;;;;;;0.50;0.20;;;;;;;19.34;86.42;99659.00;5033469;28;21026;-52
2023/07/05 05:55:04;;;;;;;0.40;0.20;;;;;;;19.62;86.01;99663.19;5033504;28;20494;-53
2023/07/05 05:57:31;;;;;;;0.40;0.20;;;;;;;19.49;85.69;99671.31;5033363;28;20467;-53
2023/07/05 05:59:57;;;;;;;0.40;0.20;;;;;;;19.65;83.89;99685.38;5033236;28;20502;-52
2023/07/05 06:02:24;;;;;;;0.40;0.20;;;;;;;19.80;81.36;99681.53;5033185;28;20531;-53
2023/07/05 06:04:52;;;;;;;0.40;0.20;;;;;;;19.44;79.45;99692.34;5032995;28;20471;-52
2023/07/05 06:07:18;;;;;;;0.40;0.20;;;;;;;19.45;79.33;99689.53;5033132;28;20991;-52
2023/07/05 06:09:49;;;;;;;0.40;0.20;;;;;;;19.45;78.75;99692.22;5032998;28;20464;-52
2023/07/05 06:12:15;;;;;;;0.40;0.20;;;;;;;19.19;79.43;99709.50;5032840;28;20521;-52
2023/07/05 06:14:42;;;;;;;0.40;0.20;;;;;;;19.14;81.10;99711.66;5032878;28;20999;-52
2023/07/05 06:17:09;;;;;;;0.40;0.20;;;;;;;19.42;79.84;99719.41;5033064;28;20521;-53
2023/07/05 06:19:36;;;;;;;0.40;0.20;;;;;;;19.50;82.14;99726.94;5032827;28;20503;-52
2023/07/05 06:22:03;;;;;;;0.40;0.20;;;;;;;20.01;79.70;99716.78;5033076;28;20502;-52
2023/07/05 06:24:33;;;;;;;0.50;0.20;;;;;;;20.34;74.68;99734.91;5032585;28;20492;-52
2023/07/05 06:27:00;;;;;;;0.40;0.20;;;;;;;20.32;71.75;99734.16;5032490;28;20523;-52
2023/07/05 06:29:27;;;;;;;0.40;0.20;;;;;;;20.50;70.84;99734.59;5032524;28;20468;-52
2023/07/05 06:31:53;;;;;;;0.40;0.20;;;;;;;20.36;70.04;99740.19;5032574;28;20467;-54
2023/07/05 06:34:21;;;;;;;0.40;0.20;;;;;;;20.55;68.00;99748.59;5033397;28;20463;-52
2023/07/05 06:36:47;;;;;;;0.40;0.20;;;;;;;20.63;66.28;99762.34;5032690;28;20846;-52
2023/07/05 06:39:14;;;;;;;0.40;0.20;;;;;;;21.16;64.25;99750.94;5032706;28;20470;-52
2023/07/05 06:41:41;;;;;;;0.40;0.20;;;;;;;20.56;66.76;99773.75;5032613;28;20603;-52
2023/07/05 06:44:07;;;;;;;0.40;0.20;;;;;;;20.41;65.58;99770.38;5032461;28;20495;-52
2023/07/05 06:46:34;;;;;;;0.40;0.20;;;;;;;20.38;64.87;99781.41;5032106;28;20483;-52
2023/07/05 06:49:01;;;;;;;0.40;0.20;;;;;;;20.16;66.58;99784.06;5032552;28;21003;-52
2023/07/05 06:51:28;;;;;;;0.40;0.20;;;;;;;20.18;66.62;99792.91;5032565;28;20566;-54
2023/07/05 06:53:54;;;;;;;0.50;0.20;;;;;;;20.10;67.54;99793.47;5032416;28;20822;-52
2023/07/05 06:56:21;;;;;;;0.40;0.20;;;;;;;20.15;69.09;99785.00;5032138;28;20487;-52
2023/07/05 06:58:47;;;;;;;0.40;0.20;;;;;;;20.09;66.29;99791.75;5032241;28;20506;-52
2023/07/05 07:01:14;;;;;;;0.40;0.20;;;;;;;19.82;67.59;99798.25;5032537;28;20495;-52
2023/07/05 07:03:42;;;;;;;0.40;0.20;;;;;;;19.36;66.75;99795.38;5032278;28;20494;-52
2023/07/05 07:06:10;;;;;;;0.40;0.20;;;;;;;19.26;68.46;99805.09;5032021;28;20479;-53
2023/07/05 07:08:39;;;;;;;0.40;0.20;;;;;;;19.14;67.60;99806.81;5032235;28;20472;-52
2023/07/05 07:11:07;;;;;;;0.40;0.20;;;;;;;19.44;65.93;99810.97;5032104;28;20945;-51
2023/07/05 07:13:34;;;;;;;0.40;0.20;;;;;;;19.65;64.93;99814.81;5032029;28;20525;-52
2023/07/05 07:16:13;;;;;;;0.40;0.20;;;;;;;19.80;65.14;99816.38;5032370;28;20487;-52
2023/07/05 07:18:50;;;;;;;0.40;0.20;;;;;;;20.18;64.73;99820.75;5032068;28;20467;-52
2023/07/05 07:21:19;;;;;;;0.40;0.20;;;;;;;20.26;61.97;99817.44;5032019;28;20553;-52
2023/07/05 07:23:47;;;;;;;0.40;0.20;;;;;;;20.35;60.12;99833.81;5031042;28;20499;-52
2023/07/05 07:26:16;;;;;;;0.40;0.20;;;;;;;20.21;60.46;99831.31;5031717;28;20487;-53
2023/07/05 07:28:48;;;;;;;0.47;0.20;;;;;;;20.40;58.57;99833.44;5032011;28;20475;-52
2023/07/05 07:31:20;;;;;;;0.40;0.20;;;;;;;20.72;59.94;99841.81;5027514;28;20473;-52
2023/07/05 07:33:48;;;;;;;0.40;0.20;;;;;;;20.22;60.63;99838.41;5031818;28;20469;-53
2023/07/05 07:36:20;;;;;;;0.40;0.20;;;;;;;20.34;60.89;99842.03;5031865;28;20494;-52
2023/07/05 07:38:47;;;;;;;0.50;0.20;;;;;;;20.29;59.96;99841.53;5032218;28;20467;-52
2023/07/05 07:41:19;;;;;;;0.40;0.20;;;;;;;20.83;58.85;99839.16;5031851;28;20498;-52
2023/07/05 07:43:46;;;;;;;0.40;0.20;;;;;;;20.51;60.14;99841.63;5031789;28;20472;-52
2023/07/05 07:46:16;;;;;;;0.40;0.20;;;;;;;20.07;59.83;99862.03;5031656;28;20518;-52
2023/07/05 07:48:46;;;;;;;0.40;0.20;;;;;;;20.30;60.09;99860.31;5031567;28;20470;-52
2023/07/05 07:51:12;;;;;;;0.50;0.20;;;;;;;20.34;61.10;99858.22;5029223;28;20513;-51
2023/07/05 07:53:59;;;;;;;0.47;0.27;;;;;;;20.52;61.12;99867.66;5025213;28;20467;-52
2023/07/05 07:56:26;;;;;;;0.40;0.20;;;;;;;20.53;60.94;99873.91;5031485;28;20537;-52
2023/07/05 07:58:56;;;;;;;0.50;0.20;;;;;;;20.13;60.81;99883.16;5031840;28;20467;-52
2023/07/05 08:01:25;;;;;;;0.40;0.20;;;;;;;20.20;61.07;99886.28;5031588;28;20930;-52
2023/07/05 08:03:53;;;;;;;0.40;0.20;;;;;;;19.99;61.83;99890.56;5031880;28;20459;-52
2023/07/05 08:06:27;;;;;;;0.40;0.20;;;;;;;20.06;61.95;99891.84;5031709;28;20559;-51
2023/07/05 08:08:53;;;;;;;0.40;0.20;;;;;;;19.78;62.81;99895.69;5031729;28;20491;-52
2023/07/05 08:11:19;;;;;;;0.40;0.20;;;;;;;19.89;64.00;99893.09;5023321;28;20474;-51
2023/07/05 08:13:48;;;;;;;0.40;0.20;;;;;;;19.97;63.79;99903.28;5031801;28;20525;-51
2023/07/05 08:16:16;;;;;;;0.40;0.20;;;;;;;20.61;62.69;99901.22;5031712;28;20515;-53
2023/07/05 08:18:46;;;;;;;0.40;0.20;;;;;;;21.04;60.06;99904.16;5031701;28;20486;-53
2023/07/05 08:21:14;;;;;;;0.40;0.20;;;;;;;21.03;57.17;99910.53;5031326;28;20491;-55
2023/07/05 08:23:42;;;;;;;0.40;0.20;;;;;;;21.50;54.66;99914.91;5023337;28;20570;-53
2023/07/05 08:26:10;;;;;;;0.40;0.20;;;;;;;21.59;55.36;99908.78;5045481;23;20593;-49
2023/07/05 08:28:37;;;;;;;0.40;0.20;;;;;;;21.43;56.56;99918.25;5029419;28;20491;-49
2023/07/05 08:31:05;;;;;;;0.50;0.20;;;;;;;20.85;55.80;99917.38;5018384;28;20464;-49
2023/07/05 08:33:34;;;;;;;0.40;0.20;;;;;;;21.23;55.50;99925.19;5025116;28;20475;-49
2023/07/05 08:36:06;;;;;;;0.50;0.20;;;;;;;21.35;54.56;99916.16;5029433;28;20483;-49
2023/07/05 08:38:33;;;;;;;0.40;0.20;;;;;;;21.58;51.49;99919.72;5015066;28;20560;-49
2023/07/05 08:41:10;;;;;;;0.40;0.20;;;;;;;21.80;50.90;99927.00;5015182;28;20901;-49
2023/07/05 08:43:46;;;;;;;0.50;0.20;;;;;;;21.76;49.50;99923.66;5015297;28;20464;-49
2023/07/05 08:46:15;;;;;;;0.50;0.20;;;;;;;21.62;50.46;99939.28;5014851;28;20912;-50
2023/07/05 08:48:44;;;;;;;0.40;0.20;;;;;;;21.46;51.18;99948.63;5014857;28;20476;-49
2023/07/05 08:51:13;;;;;;;0.40;0.20;;;;;;;21.55;51.28;99942.47;5014966;28;20467;-49
2023/07/05 08:53:57;;;;;;;0.40;0.20;;;;;;;21.42;51.12;99944.44;5014698;28;20463;-49
2023/07/05 08:56:46;;;;;;;0.50;0.20;;;;;;;20.53;51.74;99961.19;5014969;28;20480;-49
2023/07/05 08:59:27;;;;;;;0.40;0.20;;;;;;;20.69;52.90;99956.34;5014990;28;20467;-49
2023/07/05 09:01:57;;;;;;;0.50;0.20;;;;;;;21.12;51.84;99968.44;5014686;28;20514;-49
2023/07/05 09:04:27;;;;;;;0.40;0.20;;;;;;;20.96;51.84;99980.41;5015036;28;20471;-49
2023/07/05 09:07:04;;;;;;;0.40;0.20;;;;;;;20.95;52.23;99970.59;5014655;28;20588;-48
2023/07/05 09:09:49;;;;;;;0.50;0.20;;;;;;;21.68;51.35;99964.00;5014477;28;20871;-49
2023/07/05 09:12:48;;;;;;;0.40;0.20;;;;;;;21.55;51.72;99976.78;5014703;28;20456;-49
2023/07/05 09:15:29;;;;;;;0.50;0.20;;;;;;;21.70;51.06;99983.69;5010211;28;20583;-49
2023/07/05 09:18:03;;;;;;;0.50;0.30;;;;;;;21.40;52.12;99989.69;5011996;28;20464;-49
2023/07/05 09:20:51;;;;;;;0.50;0.20;;;;;;;21.19;51.64;99994.00;5014143;28;20627;-49
2023/07/05 09:23:28;;;;;;;0.40;0.20;;;;;;;20.60;51.80;99994.88;5010723;28;20472;-48
2023/07/05 09:26:01;;;;;;;0.40;0.20;;;;;;;21.06;51.63;99991.38;5010667;28;21094;-49
2023/07/05 09:28:34;;;;;;;0.40;0.20;;;;;;;20.69;53.33;99996.88;5014271;28;20471;-49
2023/07/05 09:31:01;;;;;;;0.40;0.30;;;;;;;20.90;53.83;99994.41;5014277;28;20461;-49
2023/07/05 09:33:38;;;;;;;0.50;0.30;;;;;;;20.83;53.30;100008.47;5013912;28;20536;-49
2023/07/05 09:36:24;;;;;;;0.50;0.20;;;;;;;20.72;53.28;100003.06;5002671;28;20515;-50
2023/07/05 09:39:02;;;;;;;0.40;0.20;;;;;;;21.12;51.87;100006.28;5011131;28;20471;-49
2023/07/05 09:41:51;;;;;;;0.50;0.20;;;;;;;21.21;50.56;100028.06;5013593;28;20492;-49
2023/07/05 09:44:19;;;;;;;0.40;0.20;;;;;;;21.39;51.47;100025.81;5009887;28;20481;-49
2023/07/05 09:46:46;;;;;;;0.40;0.20;;;;;;;21.75;48.93;100021.19;5012927;28;20484;-49
2023/07/05 09:49:15;;;;;;;0.40;0.20;;;;;;;21.27;49.28;100038.44;5013739;28;20468;-49
2023/07/05 09:51:44;;;;;;;0.40;0.20;;;;;;;21.82;49.48;100025.16;5013466;28;20519;-49
2023/07/05 09:54:30;;;;;;;0.40;0.20;;;;;;;22.28;49.87;100033.16;5017015;28;20468;-49
2023/07/05 09:57:09;;;;;;;0.50;0.30;;;;;;;22.17;47.55;100033.16;5013667;28;20484;-50
2023/07/05 09:59:37;;;;;;;0.40;0.20;;;;;;;22.28;47.67;100019.63;5013452;28;20901;-49
2023/07/05 10:02:10;;;;;;;0.40;0.20;;;;;;;22.37;46.83;100032.44;5013654;28;20527;-49
2023/07/05 10:04:53;;;;;;;0.50;0.20;;;;;;;21.87;47.28;100026.50;5013861;28;20551;-49
2023/07/05 10:07:22;;;;;;;0.40;0.20;;;;;;;22.38;47.80;100025.16;5013717;28;20487;-49
2023/07/05 10:10:10;;;;;;;0.50;0.20;;;;;;;22.38;46.73;100033.28;5013590;28;20991;-49
2023/07/05 10:12:40;;;;;;;0.40;0.20;;;;;;;22.65;47.30;100041.84;5013288;28;20563;-49
2023/07/05 10:15:40;;;;;;;0.50;0.20;;;;;;;22.41;46.59;100042.00;5013959;28;20496;-49
2023/07/05 10:18:33;;;;;;;0.50;0.30;;;;;;;22.53;46.95;100040.16;5005714;28;20470;-49
2023/07/05 10:21:18;;;;;;;0.50;0.20;;;;;;;22.84;45.55;100043.91;5013076;28;20627;-49
2023/07/05 10:23:44;;;;;;;0.50;0.30;;;;;;;22.67;46.67;100041.72;5013469;28;20937;-49
2023/07/05 10:26:11;;;;;;;0.50;0.20;;;;;;;22.85;46.91;100045.63;5012903;28;20488;-49
2023/07/05 10:28:41;;;;;;;0.50;0.20;;;;;;;23.16;46.49;100048.47;5013283;28;20965;-49
2023/07/05 10:31:25;;;;;;;0.50;0.20;;;;;;;23.28;44.97;100058.28;5007753;28;20496;-50
2023/07/05 10:34:04;;;;;;;0.50;0.30;;;;;;;22.32;46.92;100060.84;5013147;28;20472;-49
2023/07/05 10:36:31;;;;;;;0.50;0.20;;;;;;;22.64;46.16;100063.66;5013016;28;20515;-49
2023/07/05 10:38:57;;;;;;;0.50;0.20;;;;;;;23.07;45.70;100065.53;5012902;28;20468;-49
2023/07/05 10:41:31;;;;;;;0.50;0.30;;;;;;;22.98;46.05;100068.03;5012570;28;21001;-49
2023/07/05 10:44:05;;;;;;;0.50;0.30;;;;;;;22.96;45.38;100069.13;5012669;28;20503;-49
2023/07/05 10:46:36;;;;;;;0.50;0.20;;;;;;;22.29;44.79;100069.22;5012611;28;20490;-50
2023/07/05 10:49:11;;;;;;;0.50;0.30;;;;;;;22.61;43.90;100056.63;5007010;28;20464;-49
2023/07/05 10:51:42;;;;;;;0.50;0.20;;;;;;;22.19;43.27;100058.25;5012753;28;20507;-49
2023/07/05 10:54:27;;;;;;;0.50;0.30;;;;;;;22.65;43.60;100055.41;5012791;28;20500;-51
2023/07/05 10:56:54;;;;;;;0.50;0.20;;;;;;;22.56;43.87;100049.88;5010754;28;20492;-50
2023/07/05 10:59:25;;;;;;;0.50;0.20;;;;;;;23.14;44.01;100050.44;5012646;28;21000;-49
2023/07/05 11:02:01;;;;;;;0.50;0.20;;;;;;;23.14;43.60;100047.75;5012511;28;20501;-49
2023/07/05 11:04:30;;;;;;;0.50;0.30;;;;;;;23.34;44.08;100053.22;5010170;28;20517;-48
2023/07/05 11:07:10;;;;;;;0.50;0.20;;;;;;;24.02;43.59;100045.53;5019394;28;20480;-49
2023/07/05 11:09:38;;;;;;;0.50;0.20;;;;;;;23.74;42.42;100041.66;5012407;28;20468;-49
2023/07/05 11:12:16;;;;;;;0.50;0.20;;;;;;;23.72;43.55;100038.22;5016460;28;21020;-49
2023/07/05 11:14:44;;;;;;;2.33;1.63;;;;;;;23.85;43.24;100049.72;5012745;28;21301;-49
2023/07/05 11:17:34;;;;;;;0.50;0.20;;;;;;;23.94;41.33;100045.31;5012367;28;20671;-50
2023/07/05 11:20:01;;;;;;;0.50;0.23;;;;;;;23.79;41.19;100041.25;5009728;28;20461;-49
2023/07/05 11:22:38;;;;;;;0.50;0.30;;;;;;;23.13;41.15;100049.59;5010892;28;20496;-49
2023/07/05 11:25:10;;;;;;;0.50;0.20;;;;;;;23.16;41.54;100035.75;5012436;28;20523;-49
2023/07/05 11:27:56;;;;;;;0.50;0.30;;;;;;;23.46;41.14;100037.72;5011948;28;20555;-49
2023/07/05 11:30:43;;;;;;;0.50;0.30;;;;;;;23.72;42.13;100045.50;5012205;28;20471;-50
2023/07/05 11:33:10;;;;;;;0.50;0.20;;;;;;;24.19;41.61;100039.44;5012217;28;20500;-49
2023/07/05 11:35:47;;;;;;;0.50;0.20;;;;;;;24.24;40.13;100036.31;5012002;28;20488;-49
2023/07/05 11:38:36;;;;;;;0.50;0.30;;;;;;;24.49;40.17;100037.72;5012087;28;20479;-49
2023/07/05 11:41:04;;;;;;;0.50;0.20;;;;;;;24.17;40.29;100056.88;5011809;28;20492;-49
2023/07/05 11:43:42;;;;;;;0.50;0.30;;;;;;;23.85;40.45;100035.28;5012012;28;20469;-49
2023/07/05 11:46:38;;;;;;;0.50;0.20;;;;;;;23.99;41.25;100055.81;5004804;28;20563;-49